createdAt,value
2018-07-08T00:00:06.857Z,71.51
2018-07-08T00:01:07.425Z,71.70
2018-07-08T00:02:08.007Z,71.98
2018-07-08T00:03:08.553Z,72.28
2018-07-08T00:04:09.108Z,72.47
2018-07-08T00:05:09.675Z,72.33
2018-07-08T00:06:10.211Z,72.72
2018-07-08T00:07:10.764Z,72.91
2018-07-08T00:08:11.319Z,72.91
2018-07-08T00:09:11.870Z,73.00
2018-07-08T00:10:12.427Z,73.30
2018-07-08T00:11:12.984Z,73.58
2018-07-08T00:12:13.531Z,73.39
2018-07-08T00:13:14.086Z,73.49
2018-07-08T00:14:14.640Z,73.97
2018-07-08T00:15:15.187Z,73.77
2018-07-08T00:16:15.740Z,73.97
2018-07-08T00:17:16.307Z,73.97
2018-07-08T00:18:16.848Z,73.77
2018-07-08T00:19:17.395Z,73.97
2018-07-08T00:20:17.950Z,74.06
2018-07-08T00:21:18.497Z,74.06
2018-07-08T00:22:19.041Z,74.06
2018-07-08T00:23:19.601Z,74.44
2018-07-08T00:24:20.151Z,74.93
2018-07-08T00:25:20.709Z,74.93
2018-07-08T00:26:21.264Z,74.73
2018-07-08T00:27:21.818Z,75.02
2018-07-08T00:28:22.364Z,75.02
2018-07-08T00:29:22.922Z,75.40
2018-07-08T00:30:23.478Z,75.21
2018-07-08T00:31:24.033Z,75.31
2018-07-08T00:32:24.592Z,75.70
2018-07-08T00:33:25.140Z,76.27
2018-07-08T00:34:25.688Z,76.37
2018-07-08T00:35:26.243Z,76.17
2018-07-08T00:36:26.800Z,76.07
2018-07-08T00:37:27.354Z,76.94
2018-07-08T00:38:27.907Z,77.42
2018-07-08T00:39:28.465Z,77.23
2018-07-08T00:40:29.019Z,77.19
2018-07-08T00:41:29.576Z,77.42
2018-07-08T00:42:30.125Z,76.94
2018-07-08T00:43:30.679Z,77.29
2018-07-08T00:44:31.233Z,77.19
2018-07-08T00:45:31.789Z,77.29
2018-07-08T00:46:32.345Z,77.19
2018-07-08T00:47:32.899Z,77.09
2018-07-08T00:48:33.449Z,77.48
2018-07-08T00:49:34.003Z,77.95
2018-07-08T00:50:34.555Z,78.05
2018-07-08T00:51:35.102Z,77.95
2018-07-08T00:52:35.650Z,78.05
2018-07-08T00:53:36.204Z,79.59
2018-07-08T00:54:36.751Z,79.78
2018-07-08T00:55:37.299Z,80.35
2018-07-08T00:56:37.859Z,79.93
2018-07-08T00:57:38.404Z,81.37
2018-07-08T00:58:38.959Z,81.66
2018-07-08T00:59:39.514Z,82.04
2018-07-08T01:00:40.072Z,82.14
2018-07-08T01:01:40.658Z,81.85
2018-07-08T01:02:41.174Z,81.95
2018-07-08T01:03:41.733Z,82.04
2018-07-08T01:04:42.287Z,81.95
2018-07-08T01:05:42.839Z,82.48
2018-07-08T01:06:43.395Z,82.38
2018-07-08T01:07:43.942Z,82.00
2018-07-08T01:08:44.554Z,82.00
2018-07-08T01:09:45.054Z,82.38
2018-07-08T01:10:45.600Z,82.38
2018-07-08T01:11:46.156Z,82.48
2018-07-08T01:12:46.710Z,82.29
2018-07-08T01:13:47.254Z,82.29
2018-07-08T01:14:47.801Z,82.19
2018-07-08T01:15:48.372Z,82.00
2018-07-08T01:16:48.909Z,82.67
2018-07-08T01:17:49.465Z,82.67
2018-07-08T01:18:50.022Z,82.29
2018-07-08T01:19:50.575Z,82.57
2018-07-08T01:20:51.127Z,82.67
2018-07-08T01:21:51.675Z,82.48
2018-07-08T01:22:52.227Z,83.25
2018-07-08T01:23:52.773Z,82.86
2018-07-08T01:24:53.331Z,82.86
2018-07-08T01:25:53.883Z,83.25
2018-07-08T01:26:54.440Z,83.34
2018-07-08T01:27:54.995Z,83.34
2018-07-08T01:28:55.550Z,83.39
2018-07-08T01:29:56.101Z,83.30
2018-07-08T01:30:56.658Z,83.39
2018-07-08T01:31:57.212Z,83.30
2018-07-08T01:32:57.765Z,83.97
2018-07-08T01:33:58.319Z,83.30
2018-07-08T01:34:58.874Z,83.30
2018-07-08T01:35:59.424Z,84.06
2018-07-08T01:36:59.972Z,83.49
2018-07-08T01:38:00.524Z,83.49
2018-07-08T01:39:01.076Z,83.39
2018-07-08T01:40:01.632Z,83.68
2018-07-08T01:41:02.188Z,83.97
2018-07-08T01:42:02.734Z,83.68
2018-07-08T01:43:03.287Z,84.26
2018-07-08T01:44:03.843Z,84.35
2018-07-08T01:45:04.398Z,84.64
2018-07-08T01:46:04.949Z,84.26
2018-07-08T01:47:05.508Z,84.83
2018-07-08T01:48:06.062Z,84.64
2018-07-08T01:49:06.614Z,84.98
2018-07-08T01:50:07.162Z,85.12
2018-07-08T01:51:07.715Z,84.69
2018-07-08T01:52:08.274Z,84.69
2018-07-08T01:53:08.823Z,84.98
2018-07-08T01:54:09.369Z,84.98
2018-07-08T01:55:09.925Z,84.88
2018-07-08T01:56:10.475Z,84.69
2018-07-08T01:57:11.031Z,85.08
2018-07-08T01:58:11.581Z,85.27
2018-07-08T01:59:12.132Z,85.17
2018-07-08T02:00:12.711Z,85.27
2018-07-08T02:01:13.238Z,85.08
2018-07-08T02:02:13.790Z,85.36
2018-07-08T02:03:14.347Z,85.46
2018-07-08T02:04:14.898Z,85.46
2018-07-08T02:05:15.453Z,85.84
2018-07-08T02:06:16.008Z,86.41
2018-07-08T02:07:16.578Z,86.13
2018-07-08T02:08:17.117Z,86.22
2018-07-08T02:09:17.661Z,86.90
2018-07-08T02:10:18.217Z,87.08
2018-07-08T02:11:18.775Z,86.90
2018-07-08T02:12:19.329Z,86.90
2018-07-08T02:13:19.881Z,87.18
2018-07-08T02:14:20.429Z,86.80
2018-07-08T02:15:20.976Z,87.08
2018-07-08T02:16:21.531Z,87.08
2018-07-08T02:17:22.086Z,87.23
2018-07-08T02:18:22.638Z,86.99
2018-07-08T02:19:23.186Z,87.85
2018-07-08T02:20:23.739Z,87.71
2018-07-08T02:21:24.295Z,87.71
2018-07-08T02:22:24.847Z,87.52
2018-07-08T02:23:25.402Z,87.62
2018-07-08T02:24:25.959Z,87.81
2018-07-08T02:25:26.509Z,87.52
2018-07-08T02:26:27.064Z,88.00
2018-07-08T02:27:27.615Z,87.81
2018-07-08T02:28:28.162Z,87.52
2018-07-08T02:29:28.716Z,87.81
2018-07-08T02:30:29.271Z,88.09
2018-07-08T02:31:29.825Z,88.19
2018-07-08T02:32:30.379Z,88.09
2018-07-08T02:33:30.925Z,88.09
2018-07-08T02:34:31.478Z,88.67
2018-07-08T02:35:32.035Z,88.48
2018-07-08T02:36:32.588Z,88.48
2018-07-08T02:37:33.142Z,88.09
2018-07-08T02:38:33.697Z,87.81
2018-07-08T02:39:34.247Z,88.29
2018-07-08T02:40:34.792Z,88.48
2018-07-08T02:41:35.347Z,88.95
2018-07-08T02:42:35.901Z,88.95
2018-07-08T02:43:36.453Z,88.67
2018-07-08T02:44:36.999Z,88.67
2018-07-08T02:45:37.552Z,89.15
2018-07-08T02:46:38.106Z,88.95
2018-07-08T02:47:38.658Z,88.95
2018-07-08T02:48:39.211Z,89.15
2018-07-08T02:49:39.754Z,89.53
2018-07-08T02:50:40.312Z,89.34
2018-07-08T02:51:40.864Z,89.39
2018-07-08T02:52:41.422Z,89.87
2018-07-08T02:53:41.972Z,89.48
2018-07-08T02:54:42.527Z,89.58
2018-07-08T02:55:43.081Z,90.06
2018-07-08T02:56:43.629Z,90.16
2018-07-08T02:57:44.175Z,90.34
2018-07-08T02:58:44.730Z,90.34
2018-07-08T02:59:45.283Z,90.63
2018-07-08T03:00:45.828Z,90.34
2018-07-08T03:01:46.373Z,90.53
2018-07-08T03:02:46.928Z,90.92
2018-07-08T03:03:47.487Z,90.92
2018-07-08T03:04:48.041Z,91.11
2018-07-08T03:05:48.593Z,91.30
2018-07-08T03:06:49.149Z,91.11
2018-07-08T03:07:49.758Z,91.59
2018-07-08T03:08:50.259Z,91.30
2018-07-08T03:09:50.812Z,91.78
2018-07-08T03:10:51.371Z,91.78
2018-07-08T03:11:51.924Z,91.88
2018-07-08T03:12:52.479Z,91.88
2018-07-08T03:13:53.036Z,92.16
2018-07-08T03:14:53.585Z,91.97
2018-07-08T03:15:54.130Z,92.35
2018-07-08T03:16:54.676Z,93.02
2018-07-08T03:17:55.236Z,92.93
2018-07-08T03:18:55.794Z,93.40
2018-07-08T03:19:56.345Z,93.88
2018-07-08T03:20:56.895Z,93.69
2018-07-08T03:21:57.453Z,93.98
2018-07-08T03:22:58.007Z,93.98
2018-07-08T03:23:58.556Z,93.88
2018-07-08T03:24:59.109Z,93.79
2018-07-08T03:25:59.677Z,94.36
2018-07-08T03:27:00.224Z,94.55
2018-07-08T03:28:00.773Z,94.55
2018-07-08T03:29:01.327Z,94.26
2018-07-08T03:30:01.914Z,94.46
2018-07-08T03:31:02.442Z,93.98
2018-07-08T03:32:02.998Z,94.55
2018-07-08T03:33:03.557Z,94.55
2018-07-08T03:34:04.117Z,94.74
2018-07-08T03:35:04.673Z,94.65
2018-07-08T03:36:05.224Z,94.93
2018-07-08T03:37:05.784Z,95.12
2018-07-08T03:38:06.340Z,94.93
2018-07-08T03:39:06.903Z,95.12
2018-07-08T03:40:07.445Z,95.17
2018-07-08T03:41:08.002Z,95.61
2018-07-08T03:42:08.557Z,95.70
2018-07-08T03:43:09.113Z,95.89
2018-07-08T03:44:09.673Z,95.89
2018-07-08T03:45:10.230Z,95.65
2018-07-08T03:46:10.780Z,95.27
2018-07-08T03:47:11.338Z,95.70
2018-07-08T03:48:11.895Z,95.46
2018-07-08T03:49:12.454Z,95.65
2018-07-08T03:50:13.003Z,95.46
2018-07-08T03:51:13.553Z,96.27
2018-07-08T03:52:14.112Z,96.22
2018-07-08T03:53:14.671Z,95.65
2018-07-08T03:54:15.227Z,95.56
2018-07-08T03:55:15.786Z,95.84
2018-07-08T03:56:16.339Z,96.03
2018-07-08T03:57:16.893Z,96.08
2018-07-08T03:58:17.445Z,96.18
2018-07-08T03:59:17.993Z,96.18
2018-07-08T04:00:18.541Z,96.37
2018-07-08T04:01:19.104Z,95.70
2018-07-08T04:02:19.662Z,95.79
2018-07-08T04:03:20.221Z,95.61
2018-07-08T04:04:20.778Z,95.41
2018-07-08T04:05:21.327Z,95.12
2018-07-08T04:06:21.886Z,95.32
2018-07-08T04:07:22.443Z,95.61
2018-07-08T04:08:23.004Z,95.32
2018-07-08T04:09:23.550Z,94.65
2018-07-08T04:10:24.111Z,94.74
2018-07-08T04:11:24.667Z,94.79
2018-07-08T04:12:25.214Z,95.12
2018-07-08T04:13:25.766Z,95.32
2018-07-08T04:14:26.321Z,94.84
2018-07-08T04:15:26.886Z,94.55
2018-07-08T04:16:27.440Z,94.74
2018-07-08T04:17:27.999Z,94.36
2018-07-08T04:18:28.557Z,93.93
2018-07-08T04:19:29.120Z,94.31
2018-07-08T04:20:29.682Z,94.12
2018-07-08T04:21:30.234Z,93.79
2018-07-08T04:22:30.782Z,93.84
2018-07-08T04:23:31.340Z,93.45
2018-07-08T04:24:31.900Z,93.74
2018-07-08T04:25:32.459Z,93.74
2018-07-08T04:26:33.015Z,93.55
2018-07-08T04:27:33.573Z,93.74
2018-07-08T04:28:34.134Z,93.64
2018-07-08T04:29:34.699Z,93.55
2018-07-08T04:30:35.257Z,93.45
2018-07-08T04:31:35.807Z,93.45
2018-07-08T04:32:36.368Z,93.74
2018-07-08T04:33:36.930Z,93.74
2018-07-08T04:34:37.487Z,93.74
2018-07-08T04:35:38.050Z,93.55
2018-07-08T04:36:38.608Z,93.84
2018-07-08T04:37:39.168Z,93.45
2018-07-08T04:38:39.721Z,93.45
2018-07-08T04:39:40.279Z,92.88
2018-07-08T04:40:40.836Z,93.07
2018-07-08T04:41:41.395Z,93.35
2018-07-08T04:42:41.960Z,92.88
2018-07-08T04:43:42.513Z,92.78
2018-07-08T04:44:43.072Z,92.83
2018-07-08T04:45:43.633Z,92.30
2018-07-08T04:46:44.191Z,92.73
2018-07-08T04:47:44.744Z,92.25
2018-07-08T04:48:45.304Z,92.54
2018-07-08T04:49:45.858Z,92.54
2018-07-08T04:50:46.418Z,92.54
2018-07-08T04:51:46.973Z,92.44
2018-07-08T04:52:47.533Z,91.97
2018-07-08T04:53:48.091Z,91.58
2018-07-08T04:54:48.651Z,91.44
2018-07-08T04:55:49.210Z,91.44
2018-07-08T04:56:49.770Z,91.25
2018-07-08T04:57:50.333Z,91.10
2018-07-08T04:58:50.889Z,90.71
2018-07-08T04:59:51.452Z,88.35
2018-07-08T05:00:52.051Z,87.35
2018-07-08T05:01:52.572Z,85.37
2018-07-08T05:02:53.129Z,83.40
2018-07-08T05:03:53.695Z,81.67
2018-07-08T05:04:54.253Z,79.75
2018-07-08T05:05:54.825Z,79.46
2018-07-08T05:06:55.377Z,80.13
2018-07-08T05:07:55.941Z,80.04
2018-07-08T05:08:56.499Z,79.40
2018-07-08T05:09:57.072Z,78.77
2018-07-08T05:10:57.632Z,77.17
2018-07-08T05:11:58.198Z,76.09
2018-07-08T05:12:58.767Z,74.16
2018-07-08T05:13:59.327Z,73.72
2018-07-08T05:14:59.897Z,72.66
2018-07-08T05:16:00.464Z,72.18
2018-07-08T05:17:01.031Z,71.54
2018-07-08T05:18:01.600Z,71.06
2018-07-08T05:19:02.171Z,69.84
2018-07-08T05:20:02.740Z,69.45
2018-07-08T05:21:03.302Z,69.26
2018-07-08T05:22:03.872Z,68.49
2018-07-08T05:23:04.440Z,68.52
2018-07-08T05:24:05.009Z,68.13
2018-07-08T05:25:05.578Z,67.91
2018-07-08T05:26:06.138Z,68.65
2018-07-08T05:27:06.700Z,69.71
2018-07-08T05:28:07.270Z,70.28
2018-07-08T05:29:07.840Z,69.51
2018-07-08T05:30:08.416Z,69.26
2018-07-08T05:31:08.988Z,68.77
2018-07-08T05:32:09.561Z,68.13
2018-07-08T05:33:10.131Z,66.69
2018-07-08T05:34:10.703Z,66.69
2018-07-08T05:35:11.272Z,66.63
2018-07-08T05:36:11.848Z,66.59
2018-07-08T05:37:12.415Z,66.97
2018-07-08T05:38:12.986Z,67.07
2018-07-08T05:39:13.556Z,67.04
2018-07-08T05:40:14.128Z,67.62
2018-07-08T05:41:14.698Z,68.49
2018-07-08T05:42:15.269Z,67.75
2018-07-08T05:43:15.843Z,67.75
2018-07-08T05:44:16.417Z,66.88
2018-07-08T05:45:16.988Z,66.91
2018-07-08T05:46:17.565Z,66.53
2018-07-08T05:47:18.141Z,65.85
2018-07-08T05:48:18.712Z,65.75
2018-07-08T05:49:19.287Z,65.20
2018-07-08T05:50:19.901Z,65.78
2018-07-08T05:51:20.422Z,65.43
2018-07-08T05:52:20.990Z,64.59
2018-07-08T05:53:21.563Z,63.82
2018-07-08T05:54:22.139Z,63.53
2018-07-08T05:55:22.715Z,63.92
2018-07-08T05:56:23.289Z,63.63
2018-07-08T05:57:23.862Z,63.73
2018-07-08T05:58:24.429Z,63.27
2018-07-08T05:59:25.009Z,62.21
2018-07-08T06:00:25.576Z,62.88
2018-07-08T06:01:26.152Z,62.59
2018-07-08T06:02:26.715Z,63.05
2018-07-08T06:03:27.291Z,62.69
2018-07-08T06:04:27.909Z,61.82
2018-07-08T06:05:28.441Z,61.63
2018-07-08T06:06:29.014Z,61.43
2018-07-08T06:07:29.582Z,61.53
2018-07-08T06:08:30.155Z,61.56
2018-07-08T06:09:30.736Z,60.82
2018-07-08T06:10:31.307Z,60.40
2018-07-08T06:11:31.882Z,60.85
2018-07-08T06:12:32.460Z,61.46
2018-07-08T06:13:33.031Z,61.56
2018-07-08T06:14:33.607Z,61.08
2018-07-08T06:15:34.182Z,60.91
2018-07-08T06:16:34.761Z,60.33
2018-07-08T06:17:35.331Z,59.69
2018-07-08T06:18:35.906Z,58.94
2018-07-08T06:19:36.480Z,58.55
2018-07-08T06:20:37.051Z,58.06
2018-07-08T06:21:37.628Z,58.09
2018-07-08T06:22:38.201Z,57.80
2018-07-08T06:23:38.775Z,57.68
2018-07-08T06:24:39.350Z,58.52
2018-07-08T06:25:39.923Z,58.62
2018-07-08T06:26:40.497Z,58.65
2018-07-08T06:27:41.071Z,58.67
2018-07-08T06:28:41.646Z,58.31
2018-07-08T06:29:42.227Z,57.61
2018-07-08T06:30:42.797Z,57.80
2018-07-08T06:31:43.386Z,57.34
2018-07-08T06:32:43.951Z,56.47
2018-07-08T06:33:44.528Z,56.28
2018-07-08T06:34:45.101Z,56.25
2018-07-08T06:35:45.678Z,56.28
2018-07-08T06:36:46.252Z,56.21
2018-07-08T06:37:46.821Z,55.55
2018-07-08T06:38:47.400Z,54.71
2018-07-08T06:39:47.982Z,54.61
2018-07-08T06:40:48.559Z,53.74
2018-07-08T06:41:49.132Z,54.03
2018-07-08T06:42:49.712Z,53.86
2018-07-08T06:43:50.285Z,53.28
2018-07-08T06:44:50.862Z,53.38
2018-07-08T06:45:51.438Z,53.25
2018-07-08T06:46:52.008Z,53.28
2018-07-08T06:47:52.582Z,52.89
2018-07-08T06:48:53.152Z,51.99
2018-07-08T06:49:53.730Z,52.37
2018-07-08T06:50:54.306Z,52.94
2018-07-08T06:51:54.886Z,53.42
2018-07-08T06:52:55.460Z,53.39
2018-07-08T06:53:56.038Z,53.30
2018-07-08T06:54:56.607Z,53.52
2018-07-08T06:55:57.185Z,52.96
2018-07-08T06:56:57.761Z,52.59
2018-07-08T06:57:58.389Z,52.01
2018-07-08T06:58:58.912Z,51.92
2018-07-08T06:59:59.486Z,51.65
2018-07-08T07:01:00.068Z,50.95
2018-07-08T07:02:00.642Z,51.43
2018-07-08T07:03:01.220Z,51.33
2018-07-08T07:04:01.801Z,51.33
2018-07-08T07:05:02.377Z,50.58
2018-07-08T07:06:02.957Z,50.31
2018-07-08T07:07:03.528Z,50.02
2018-07-08T07:08:04.109Z,49.34
2018-07-08T07:09:04.685Z,49.83
2018-07-08T07:10:05.270Z,48.88
2018-07-08T07:11:05.842Z,49.07
2018-07-08T07:12:06.414Z,49.17
2018-07-08T07:13:06.993Z,48.78
2018-07-08T07:14:07.573Z,49.24
2018-07-08T07:15:08.152Z,50.31
2018-07-08T07:16:08.735Z,50.29
2018-07-08T07:17:09.304Z,50.51
2018-07-08T07:18:09.883Z,50.31
2018-07-08T07:19:10.463Z,50.29
2018-07-08T07:20:11.042Z,51.14
2018-07-08T07:21:11.616Z,51.53
2018-07-08T07:22:12.187Z,51.72
2018-07-08T07:23:12.765Z,51.17
2018-07-08T07:24:13.342Z,49.92
2018-07-08T07:25:13.918Z,49.37
2018-07-08T07:26:14.499Z,49.27
2018-07-08T07:27:15.068Z,49.07
2018-07-08T07:28:15.636Z,49.07
2018-07-08T07:29:16.217Z,49.05
2018-07-08T07:30:16.791Z,49.44
2018-07-08T07:31:17.369Z,49.15
2018-07-08T07:32:17.938Z,49.07
2018-07-08T07:33:18.517Z,48.58
2018-07-08T07:34:19.097Z,48.36
2018-07-08T07:35:19.666Z,48.95
2018-07-08T07:36:20.245Z,48.85
2018-07-08T07:37:20.860Z,48.56
2018-07-08T07:38:21.390Z,48.27
2018-07-08T07:39:21.962Z,48.07
2018-07-08T07:40:22.531Z,47.61
2018-07-08T07:41:23.102Z,47.61
2018-07-08T07:42:23.683Z,47.13
2018-07-08T07:43:24.256Z,46.86
2018-07-08T07:44:24.838Z,46.59
2018-07-08T07:45:25.456Z,46.59
2018-07-08T07:46:25.982Z,46.12
2018-07-08T07:47:26.560Z,46.22
2018-07-08T07:48:27.130Z,45.85
2018-07-08T07:49:27.711Z,45.85
2018-07-08T07:50:28.284Z,45.78
2018-07-08T07:51:28.858Z,45.39
2018-07-08T07:52:29.434Z,45.36
2018-07-08T07:53:30.017Z,45.65
2018-07-08T07:54:30.593Z,46.04
2018-07-08T07:55:31.164Z,45.92
2018-07-08T07:56:31.734Z,46.12
2018-07-08T07:57:32.307Z,45.73
2018-07-08T07:58:32.884Z,45.73
2018-07-08T07:59:33.462Z,45.90
2018-07-08T08:00:34.039Z,46.37
2018-07-08T08:01:34.617Z,46.95
2018-07-08T08:02:35.200Z,46.95
2018-07-08T08:03:35.770Z,46.95
2018-07-08T08:04:36.346Z,46.86
2018-07-08T08:05:36.919Z,47.05
2018-07-08T08:06:37.490Z,46.86
2018-07-08T08:07:38.065Z,46.56
2018-07-08T08:08:38.644Z,46.30
2018-07-08T08:09:39.211Z,46.88
2018-07-08T08:10:39.811Z,46.39
2018-07-08T08:11:40.360Z,46.30
2018-07-08T08:12:40.940Z,45.98
2018-07-08T08:13:41.518Z,46.44
2018-07-08T08:14:42.087Z,46.83
2018-07-08T08:15:42.663Z,47.05
2018-07-08T08:16:43.244Z,46.69
2018-07-08T08:17:43.819Z,46.30
2018-07-08T08:18:44.396Z,45.81
2018-07-08T08:19:44.965Z,45.54
2018-07-08T08:20:45.545Z,45.15
2018-07-08T08:21:46.118Z,44.46
2018-07-08T08:22:46.697Z,44.85
2018-07-08T08:23:47.267Z,44.66
2018-07-08T08:24:47.845Z,44.76
2018-07-08T08:25:48.421Z,44.46
2018-07-08T08:26:49.050Z,44.46
2018-07-08T08:27:49.564Z,44.46
2018-07-08T08:28:50.141Z,43.88
2018-07-08T08:29:50.720Z,44.46
2018-07-08T08:30:51.300Z,44.54
2018-07-08T08:31:51.879Z,44.44
2018-07-08T08:32:52.491Z,44.56
2018-07-08T08:33:53.025Z,44.85
2018-07-08T08:34:53.596Z,44.46
2018-07-08T08:35:54.167Z,43.71
2018-07-08T08:36:54.743Z,44.19
2018-07-08T08:37:55.316Z,43.99
2018-07-08T08:38:55.893Z,43.82
2018-07-08T08:39:56.472Z,43.82
2018-07-08T08:40:57.052Z,43.95
2018-07-08T08:41:57.620Z,43.43
2018-07-08T08:42:58.192Z,43.24
2018-07-08T08:43:58.769Z,43.14
2018-07-08T08:44:59.344Z,43.14
2018-07-08T08:45:59.979Z,43.02
2018-07-08T08:47:00.496Z,43.61
2018-07-08T08:48:01.070Z,43.47
2018-07-08T08:49:01.650Z,43.84
2018-07-08T08:50:02.225Z,44.15
2018-07-08T08:51:02.802Z,43.98
2018-07-08T08:52:03.382Z,43.76
2018-07-08T08:53:03.961Z,44.54
2018-07-08T08:54:04.535Z,43.76
2018-07-08T08:55:05.111Z,43.95
2018-07-08T08:56:05.683Z,43.27
2018-07-08T08:57:06.260Z,43.66
2018-07-08T08:58:06.828Z,44.05
2018-07-08T08:59:07.423Z,44.32
2018-07-08T09:00:08.000Z,44.89
2018-07-08T09:01:08.576Z,45.20
2018-07-08T09:02:09.150Z,44.59
2018-07-08T09:03:09.725Z,45.15
2018-07-08T09:04:10.304Z,45.45
2018-07-08T09:05:10.882Z,45.45
2018-07-08T09:06:11.458Z,45.74
2018-07-08T09:07:12.024Z,46.30
2018-07-08T09:08:12.598Z,46.98
2018-07-08T09:09:13.177Z,46.98
2018-07-08T09:10:13.758Z,46.42
2018-07-08T09:11:14.331Z,46.23
2018-07-08T09:12:14.904Z,46.47
2018-07-08T09:13:15.479Z,46.74
2018-07-08T09:14:16.060Z,46.86
2018-07-08T09:15:16.632Z,46.86
2018-07-08T09:16:17.208Z,46.13
2018-07-08T09:17:17.818Z,45.57
2018-07-08T09:18:18.360Z,45.47
2018-07-08T09:19:18.935Z,45.68
2018-07-08T09:20:19.510Z,45.37
2018-07-08T09:21:20.091Z,45.37
2018-07-08T09:22:20.667Z,45.67
2018-07-08T09:23:21.241Z,45.47
2018-07-08T09:24:21.816Z,45.94
2018-07-08T09:25:22.391Z,46.23
2018-07-08T09:26:22.968Z,46.51
2018-07-08T09:27:23.542Z,46.51
2018-07-08T09:28:24.120Z,46.34
2018-07-08T09:29:24.809Z,45.86
2018-07-08T09:30:25.264Z,46.42
2018-07-08T09:31:25.839Z,46.32
2018-07-08T09:32:26.410Z,45.95
2018-07-08T09:33:26.984Z,45.68
2018-07-08T09:34:27.560Z,45.22
2018-07-08T09:35:28.135Z,45.12
2018-07-08T09:36:28.709Z,45.22
2018-07-08T09:37:29.276Z,45.20
2018-07-08T09:38:29.858Z,45.39
2018-07-08T09:39:30.436Z,45.49
2018-07-08T09:40:31.010Z,45.59
2018-07-08T09:41:31.591Z,45.78
2018-07-08T09:42:32.185Z,45.59
2018-07-08T09:43:32.741Z,45.42
2018-07-08T09:44:33.314Z,45.51
2018-07-08T09:45:33.894Z,45.59
2018-07-08T09:46:34.465Z,45.81
2018-07-08T09:47:35.041Z,45.25
2018-07-08T09:48:35.617Z,45.34
2018-07-08T09:49:36.193Z,45.54
2018-07-08T09:50:36.770Z,45.36
2018-07-08T09:51:37.345Z,44.76
2018-07-08T09:52:37.968Z,44.87
2018-07-08T09:53:38.487Z,44.87
2018-07-08T09:54:39.060Z,45.36
2018-07-08T09:55:39.637Z,45.26
2018-07-08T09:56:40.259Z,45.75
2018-07-08T09:57:40.839Z,45.26
2018-07-08T09:58:41.413Z,45.54
2018-07-08T09:59:41.992Z,45.12
2018-07-08T10:00:42.572Z,45.68
2018-07-08T10:01:43.147Z,46.27
2018-07-08T10:02:43.729Z,47.08
2018-07-08T10:03:44.304Z,48.17
2018-07-08T10:04:44.929Z,47.98
2018-07-08T10:05:45.458Z,47.69
2018-07-08T10:06:46.035Z,47.61
2018-07-08T10:07:46.611Z,46.78
2018-07-08T10:08:47.235Z,46.20
2018-07-08T10:09:47.751Z,46.39
2018-07-08T10:10:48.355Z,46.39
2018-07-08T10:11:48.896Z,46.02
2018-07-08T10:12:49.477Z,46.10
2018-07-08T10:13:50.061Z,45.61
2018-07-08T10:14:50.608Z,46.08
2018-07-08T10:15:51.183Z,46.37
2018-07-08T10:16:51.757Z,46.47
2018-07-08T10:17:52.349Z,46.66
2018-07-08T10:18:52.905Z,46.76
2018-07-08T10:19:53.658Z,46.93
2018-07-08T10:20:54.049Z,47.25
2018-07-08T10:21:54.619Z,47.13
2018-07-08T10:22:55.194Z,46.86
2018-07-08T10:23:55.768Z,46.97
2018-07-08T10:24:56.339Z,46.10
2018-07-08T10:25:56.917Z,46.08
2018-07-08T10:26:57.484Z,46.47
2018-07-08T10:27:58.057Z,46.93
2018-07-08T10:28:58.638Z,47.03
2018-07-08T10:29:59.211Z,47.88
2018-07-08T10:30:59.790Z,47.96
2018-07-08T10:32:00.365Z,48.25
2018-07-08T10:33:00.941Z,48.73
2018-07-08T10:34:01.518Z,48.44
2018-07-08T10:35:02.088Z,49.22
2018-07-08T10:36:02.663Z,49.22
2018-07-08T10:37:03.237Z,48.78
2018-07-08T10:38:03.813Z,49.27
2018-07-08T10:39:04.388Z,49.78
2018-07-08T10:40:04.962Z,49.32
2018-07-08T10:41:05.532Z,49.05
2018-07-08T10:42:06.098Z,48.39
2018-07-08T10:43:06.667Z,48.66
2018-07-08T10:44:07.235Z,49.24
2018-07-08T10:45:07.811Z,48.46
2018-07-08T10:46:08.390Z,48.95
2018-07-08T10:47:08.968Z,48.58
2018-07-08T10:48:09.535Z,48.29
2018-07-08T10:49:10.103Z,47.83
2018-07-08T10:50:10.734Z,47.36
2018-07-08T10:51:11.242Z,46.31
2018-07-08T10:52:11.821Z,46.04
2018-07-08T10:53:12.396Z,46.31
2018-07-08T10:54:12.975Z,46.61
2018-07-08T10:55:13.553Z,46.90
2018-07-08T10:56:14.116Z,46.90
2018-07-08T10:57:14.684Z,47.02
2018-07-08T10:58:15.261Z,46.92
2018-07-08T10:59:15.840Z,46.90
2018-07-08T11:00:16.416Z,45.95
2018-07-08T11:01:16.985Z,45.95
2018-07-08T11:02:17.564Z,45.87
2018-07-08T11:03:18.140Z,45.56
2018-07-08T11:04:18.715Z,45.48
2018-07-08T11:05:19.296Z,44.63
2018-07-08T11:06:19.868Z,45.56
2018-07-08T11:07:20.446Z,45.65
2018-07-08T11:08:21.025Z,45.65
2018-07-08T11:09:21.600Z,44.90
2018-07-08T11:10:22.174Z,45.58
2018-07-08T11:11:22.746Z,45.31
2018-07-08T11:12:23.309Z,45.82
2018-07-08T11:13:23.884Z,45.51
2018-07-08T11:14:24.468Z,45.29
2018-07-08T11:15:25.043Z,45.65
2018-07-08T11:16:25.626Z,46.02
2018-07-08T11:17:26.198Z,46.12
2018-07-08T11:18:26.775Z,46.22
2018-07-08T11:19:27.344Z,46.14
2018-07-08T11:20:27.961Z,47.07
2018-07-08T11:21:28.497Z,47.07
2018-07-08T11:22:29.077Z,47.07
2018-07-08T11:23:29.650Z,46.80
2018-07-08T11:24:30.220Z,46.07
2018-07-08T11:25:30.789Z,45.68
2018-07-08T11:26:31.363Z,45.31
2018-07-08T11:27:31.942Z,45.31
2018-07-08T11:28:32.524Z,45.41
2018-07-08T11:29:33.096Z,45.19
2018-07-08T11:30:33.671Z,45.29
2018-07-08T11:31:34.250Z,45.95
2018-07-08T11:32:34.829Z,46.26
2018-07-08T11:33:35.403Z,45.58
2018-07-08T11:34:35.972Z,45.31
2018-07-08T11:35:36.541Z,45.43
2018-07-08T11:36:37.117Z,45.16
2018-07-08T11:37:37.692Z,44.74
2018-07-08T11:38:38.267Z,45.33
2018-07-08T11:39:38.833Z,44.77
2018-07-08T11:40:39.414Z,44.74
2018-07-08T11:41:39.992Z,44.18
2018-07-08T11:42:40.577Z,43.89
2018-07-08T11:43:41.140Z,43.62
2018-07-08T11:44:41.724Z,43.79
2018-07-08T11:45:42.302Z,43.59
2018-07-08T11:46:42.877Z,43.99
2018-07-08T11:47:43.447Z,43.99
2018-07-08T11:48:44.015Z,43.40
2018-07-08T11:49:44.587Z,43.49
2018-07-08T11:50:45.187Z,43.77
2018-07-08T11:51:45.747Z,44.82
2018-07-08T11:52:46.328Z,44.74
2018-07-08T11:53:46.908Z,44.60
2018-07-08T11:54:47.476Z,45.61
2018-07-08T11:55:48.051Z,45.43
2018-07-08T11:56:48.631Z,45.31
2018-07-08T11:57:49.203Z,45.23
2018-07-08T11:58:49.771Z,44.74
2018-07-08T11:59:50.356Z,44.87
2018-07-08T12:00:50.924Z,44.18
2018-07-08T12:01:51.546Z,43.79
2018-07-08T12:02:52.067Z,44.09
2018-07-08T12:03:52.641Z,43.84
2018-07-08T12:04:53.227Z,43.07
2018-07-08T12:05:53.807Z,42.58
2018-07-08T12:06:54.384Z,42.38
2018-07-08T12:07:54.975Z,41.82
2018-07-08T12:08:55.639Z,41.62
2018-07-08T12:09:56.116Z,42.17
2018-07-08T12:10:56.688Z,42.35
2018-07-08T12:11:57.279Z,43.34
2018-07-08T12:12:57.851Z,42.29
2018-07-08T12:13:58.429Z,42.70
2018-07-08T12:14:59.005Z,41.92
2018-07-08T12:15:59.581Z,41.84
2018-07-08T12:17:00.157Z,42.11
2018-07-08T12:18:00.757Z,41.35
2018-07-08T12:19:01.372Z,42.02
2018-07-08T12:20:01.965Z,42.11
2018-07-08T12:21:02.571Z,41.86
2018-07-08T12:22:03.142Z,41.45
2018-07-08T12:23:03.716Z,41.62
2018-07-08T12:24:04.295Z,41.82
2018-07-08T12:25:04.884Z,41.74
2018-07-08T12:26:05.461Z,40.88
2018-07-08T12:27:06.044Z,40.39
2018-07-08T12:28:06.622Z,40.03
2018-07-08T12:29:07.225Z,39.86
2018-07-08T12:30:07.809Z,39.39
2018-07-08T12:31:08.390Z,39.01
2018-07-08T12:32:08.959Z,38.58
2018-07-08T12:33:09.549Z,39.06
2018-07-08T12:34:10.120Z,39.14
2018-07-08T12:35:10.696Z,39.96
2018-07-08T12:36:11.282Z,41.05
2018-07-08T12:37:11.859Z,41.35
2018-07-08T12:38:12.439Z,40.94
2018-07-08T12:39:13.010Z,41.52
2018-07-08T12:40:13.589Z,41.62
2018-07-08T12:41:14.164Z,41.33
2018-07-08T12:42:14.746Z,41.15
2018-07-08T12:43:15.324Z,40.74
2018-07-08T12:44:15.997Z,40.45
2018-07-08T12:45:16.474Z,40.27
2018-07-08T12:46:17.051Z,39.70
2018-07-08T12:47:17.628Z,39.11
2018-07-08T12:48:18.206Z,39.80
2018-07-08T12:49:18.787Z,39.82
2018-07-08T12:50:19.361Z,40.11
2018-07-08T12:51:19.982Z,39.74
2018-07-08T12:52:20.505Z,39.92
2018-07-08T12:53:21.084Z,39.53
2018-07-08T12:54:21.663Z,40.00
2018-07-08T12:55:22.232Z,39.98
2018-07-08T12:56:22.819Z,40.58
2018-07-08T12:57:23.395Z,39.72
2018-07-08T12:58:23.972Z,40.13
2018-07-08T12:59:24.543Z,39.56